Accueil
METAR-TAF:

METAR-TAF

Aéroports :

Wonderboom Airport

Pretoria, Afrique du Sud

latitude: 25-39S, longitude: 028-13E, altitude: 1248 m

Observation

Le bulletin a été fait il y a 16 minutes, à 12:00 UTC
Vent 4 kt de ouest
Température 21°C
Humidité 26%
Pression 1026 hPa

METAR: FAWB 141200Z AUTO 26004KT //// // ////// 21/01 Q1026

Heure: 14:16 (12:16 UTC)

Prévision

Le bulletin a été fait il y a 3 heures et 16 minutes, à 09:00 UTC
Prévision valable du 14 à 10 UTC au 14 à 18 UTC
Vent 3 kt de direction variable
Visibilité 10 km ou plus
pas de nuages en-dessous de 1500 mètres et pas de cumulonimbus.

TAF: FAWB 140900Z 1410/1418 VRB03KT CAVOK TX22/1413Z TN09/1418Z

Observations et prévisions météorologiques de plus de 4000 aéroports (messages METAR et TAF).

Les stations disponibles sont représentées par des disques jaunes et rouges sur la carte.

Passer la souris dessus pour voir le nom de la station.

Cliquer dessus pour voir les observations et prévisions météorologiques.

Pour changer de carte: cliquez sur les boutons verts avec une croix noire pour zoomer, sur le bouton vert avec un tiret pour effectuer un zoom arrière, ou sur les flèches vertes pour les cartes adjacentes.


METAR-TAF: